createdAt,value
2018-02-09T00:00:26.659Z,23.27
2018-02-09T00:02:52.706Z,23.37
2018-02-09T00:05:18.752Z,23.38
2018-02-09T00:07:44.877Z,23.35
2018-02-09T00:10:10.953Z,23.40
2018-02-09T00:12:37.005Z,23.34
2018-02-09T00:15:03.058Z,23.41
2018-02-09T00:17:29.109Z,23.38
2018-02-09T00:19:55.148Z,23.40
2018-02-09T00:22:21.233Z,23.44
2018-02-09T00:24:47.297Z,23.47
2018-02-09T00:27:13.357Z,23.50
2018-02-09T00:29:39.408Z,23.51
2018-02-09T00:32:05.565Z,23.46
2018-02-09T00:34:31.604Z,23.52
2018-02-09T00:36:57.733Z,23.54
2018-02-09T00:39:23.749Z,23.53
2018-02-09T00:41:49.848Z,23.54
2018-02-09T00:44:15.913Z,23.51
2018-02-09T00:46:41.954Z,23.55
2018-02-09T00:49:08.050Z,23.53
2018-02-09T00:51:34.139Z,23.53
2018-02-09T00:54:00.181Z,23.47
2018-02-09T00:56:26.261Z,23.52
2018-02-09T00:58:52.339Z,23.55
2018-02-09T01:01:18.455Z,23.45
2018-02-09T01:03:44.500Z,23.44
2018-02-09T01:06:10.565Z,23.52
2018-02-09T01:08:36.649Z,23.49
2018-02-09T01:11:02.688Z,23.53
2018-02-09T01:13:28.758Z,23.56
2018-02-09T01:15:54.876Z,23.55
2018-02-09T01:18:21.014Z,23.53
2018-02-09T01:20:47.086Z,23.47
2018-02-09T01:23:13.140Z,23.54
2018-02-09T01:25:39.208Z,23.47
2018-02-09T01:28:05.268Z,23.53
2018-02-09T01:30:31.362Z,23.53
2018-02-09T01:32:57.463Z,23.53
2018-02-09T01:35:23.527Z,23.54
2018-02-09T01:37:49.636Z,23.52
2018-02-09T01:40:15.717Z,23.52
2018-02-09T01:42:41.752Z,23.53
2018-02-09T01:45:07.836Z,23.52
2018-02-09T01:47:33.924Z,23.52
2018-02-09T01:50:00.000Z,23.54
2018-02-09T01:52:26.109Z,23.43
2018-02-09T01:54:52.200Z,23.50
2018-02-09T01:57:18.429Z,23.54
2018-02-09T01:59:44.476Z,23.54
2018-02-09T02:02:10.520Z,23.52
2018-02-09T02:04:36.567Z,23.55
2018-02-09T02:07:02.678Z,23.53
2018-02-09T02:09:28.734Z,23.53
2018-02-09T02:11:54.772Z,23.54
2018-02-09T02:14:20.900Z,23.52
2018-02-09T02:16:46.987Z,23.53
2018-02-09T02:19:13.068Z,23.57
2018-02-09T02:21:39.152Z,23.51
2018-02-09T02:24:05.180Z,23.52
2018-02-09T02:26:31.225Z,23.43
2018-02-09T02:28:57.273Z,23.51
2018-02-09T02:31:23.319Z,23.52
2018-02-09T02:33:49.384Z,23.51
2018-02-09T02:36:15.488Z,23.57
2018-02-09T02:38:41.573Z,23.55
2018-02-09T02:41:07.672Z,23.56
2018-02-09T02:43:33.756Z,23.53
2018-02-09T02:45:59.798Z,23.56
2018-02-09T02:48:25.850Z,23.58
2018-02-09T02:50:51.888Z,23.57
2018-02-09T02:53:17.934Z,23.57
2018-02-09T02:55:44.005Z,23.57
2018-02-09T02:58:10.067Z,23.54
2018-02-09T03:00:36.121Z,23.56
2018-02-09T03:03:02.233Z,23.58
2018-02-09T03:05:28.350Z,23.58
2018-02-09T03:07:54.402Z,23.60
2018-02-09T03:10:20.668Z,23.59
2018-02-09T03:12:46.710Z,23.57
2018-02-09T03:15:12.749Z,23.59
2018-02-09T03:17:38.821Z,23.56
2018-02-09T03:20:04.940Z,23.59
2018-02-09T03:22:31.068Z,23.54
2018-02-09T03:24:57.126Z,23.59
2018-02-09T03:27:23.237Z,23.57
2018-02-09T03:29:49.316Z,23.60
2018-02-09T03:32:15.419Z,23.59
2018-02-09T03:34:41.471Z,23.58
2018-02-09T03:37:07.587Z,23.58
2018-02-09T03:39:33.768Z,23.59
2018-02-09T03:41:59.896Z,23.60
2018-02-09T03:44:25.932Z,23.57
2018-02-09T03:46:52.018Z,23.59
2018-02-09T03:49:18.126Z,23.59
2018-02-09T03:51:44.238Z,23.56
2018-02-09T03:54:10.334Z,23.59
2018-02-09T03:56:36.405Z,23.55
2018-02-09T03:59:02.444Z,23.56
2018-02-09T04:01:28.511Z,23.58
2018-02-09T04:03:54.594Z,23.46
2018-02-09T04:06:20.748Z,23.56
2018-02-09T04:08:46.836Z,23.50
2018-02-09T04:11:12.906Z,23.50
2018-02-09T04:13:39.001Z,23.26
2018-02-09T04:16:05.046Z,22.93
2018-02-09T04:18:31.265Z,22.39
2018-02-09T04:20:57.371Z,22.29
2018-02-09T04:23:23.415Z,21.87
2018-02-09T04:25:49.452Z,22.12
2018-02-09T04:28:15.585Z,22.05
2018-02-09T04:30:41.642Z,21.82
2018-02-09T04:33:07.681Z,21.90
2018-02-09T04:35:33.734Z,22.14
2018-02-09T04:37:59.788Z,22.56
2018-02-09T04:40:25.837Z,22.79
2018-02-09T04:42:51.912Z,22.98
2018-02-09T04:45:17.996Z,23.07
2018-02-09T04:47:44.081Z,23.13
2018-02-09T04:50:10.150Z,23.22
2018-02-09T04:52:36.266Z,23.24
2018-02-09T04:55:02.376Z,23.26
2018-02-09T04:57:28.424Z,23.28
2018-02-09T04:59:54.512Z,23.29
2018-02-09T05:02:20.567Z,23.28
2018-02-09T05:04:46.648Z,23.35
2018-02-09T05:07:12.765Z,23.37
2018-02-09T05:09:38.808Z,23.31
2018-02-09T05:12:04.893Z,23.41
2018-02-09T05:14:30.936Z,23.45
2018-02-09T05:16:57.030Z,23.43
2018-02-09T05:19:23.087Z,23.47
2018-02-09T05:21:49.145Z,23.44
2018-02-09T05:24:15.307Z,23.44
2018-02-09T05:26:41.362Z,23.50
2018-02-09T05:29:07.440Z,23.54
2018-02-09T05:31:33.568Z,23.53
2018-02-09T05:33:59.612Z,23.60
2018-02-09T05:36:25.658Z,23.55
2018-02-09T05:38:51.756Z,23.61
2018-02-09T05:41:17.879Z,23.65
2018-02-09T05:43:44.012Z,23.63
2018-02-09T05:46:10.057Z,23.66
2018-02-09T05:48:36.125Z,23.67
2018-02-09T05:51:02.196Z,23.67
2018-02-09T05:53:28.301Z,23.72
2018-02-09T05:55:54.386Z,23.69
2018-02-09T05:58:20.438Z,23.76
2018-02-09T06:00:46.544Z,23.75
2018-02-09T06:03:12.556Z,23.77
2018-02-09T06:05:38.596Z,23.80
2018-02-09T06:08:04.637Z,23.82
2018-02-09T06:10:30.688Z,23.86
2018-02-09T06:12:56.747Z,24.10
2018-02-09T06:15:22.867Z,24.94
2018-02-09T06:17:48.948Z,25.40
2018-02-09T06:20:15.116Z,25.74
2018-02-09T06:22:41.144Z,26.04
2018-02-09T06:25:07.233Z,26.24
2018-02-09T06:27:33.303Z,26.55
2018-02-09T06:29:59.346Z,25.53
2018-02-09T06:32:25.421Z,25.36
2018-02-09T06:34:51.616Z,25.48
2018-02-09T06:37:17.671Z,26.49
2018-02-09T06:39:43.755Z,26.54
2018-02-09T06:42:09.831Z,27.29
2018-02-09T06:44:36.009Z,27.80
2018-02-09T06:47:02.040Z,27.52
2018-02-09T06:49:28.095Z,26.22
2018-02-09T06:51:54.145Z,27.59
2018-02-09T06:54:20.356Z,28.13
2018-02-09T06:56:46.521Z,28.34
2018-02-09T06:59:12.621Z,28.30
2018-02-09T07:01:38.673Z,27.98
2018-02-09T07:04:04.720Z,26.83
2018-02-09T07:06:30.860Z,26.39
2018-02-09T07:08:57.279Z,26.24
2018-02-09T07:11:23.428Z,26.32
2018-02-09T07:13:49.528Z,26.34
2018-02-09T07:16:15.628Z,26.38
2018-02-09T07:18:41.909Z,26.44
2018-02-09T07:21:08.029Z,26.36
2018-02-09T07:23:34.160Z,26.29
2018-02-09T07:26:00.284Z,26.27
2018-02-09T07:28:26.401Z,26.01
2018-02-09T07:30:52.499Z,26.10
2018-02-09T07:33:18.595Z,25.92
2018-02-09T07:35:44.660Z,25.88
2018-02-09T07:38:10.836Z,25.89
2018-02-09T07:40:39.270Z,25.88
2018-02-09T07:43:05.392Z,25.84
2018-02-09T07:45:31.470Z,25.91
2018-02-09T07:47:57.592Z,25.81
2018-02-09T07:50:23.650Z,25.85
2018-02-09T07:52:49.748Z,25.82
2018-02-09T07:55:15.793Z,25.81
2018-02-09T07:57:41.897Z,25.72
2018-02-09T08:00:07.993Z,25.52
2018-02-09T08:02:34.072Z,25.51
2018-02-09T08:05:00.232Z,25.41
2018-02-09T08:07:27.279Z,25.25
2018-02-09T08:09:53.350Z,25.28
2018-02-09T08:12:19.481Z,24.96
2018-02-09T08:14:45.580Z,24.85
2018-02-09T08:17:11.682Z,25.00
2018-02-09T08:19:37.766Z,24.98
2018-02-09T08:22:03.817Z,25.01
2018-02-09T08:24:29.880Z,24.84
2018-02-09T08:26:55.985Z,24.69
2018-02-09T08:29:22.020Z,24.90
2018-02-09T08:31:48.074Z,24.88
2018-02-09T08:34:15.240Z,24.61
2018-02-09T08:36:41.260Z,24.85
2018-02-09T08:39:07.314Z,24.78
2018-02-09T08:41:33.384Z,24.70
2018-02-09T08:43:59.483Z,24.57
2018-02-09T08:46:25.579Z,24.70
2018-02-09T08:48:51.650Z,24.51
2018-02-09T08:51:17.712Z,24.62
2018-02-09T08:53:43.773Z,24.69
2018-02-09T08:56:09.872Z,24.73
2018-02-09T08:58:36.064Z,24.75
2018-02-09T09:01:02.144Z,24.70
2018-02-09T09:05:41.556Z,25.42
2018-02-09T09:12:38.429Z,26.26
2018-02-09T09:15:04.490Z,26.01
2018-02-09T09:17:30.675Z,26.06
2018-02-09T09:19:57.757Z,25.94
2018-02-09T09:22:23.796Z,26.01
2018-02-09T09:29:50.846Z,25.28
2018-02-09T09:32:17.090Z,25.50
2018-02-09T09:34:43.288Z,25.45
2018-02-09T09:37:09.361Z,25.42
2018-02-09T09:41:28.880Z,24.97
2018-02-09T09:43:55.103Z,24.28
2018-02-09T09:46:21.242Z,24.79
2018-02-09T09:48:47.328Z,24.75
2018-02-09T09:51:13.478Z,24.54
2018-02-09T09:53:39.588Z,24.58
2018-02-09T09:56:05.773Z,24.65
2018-02-09T09:58:31.905Z,24.73
2018-02-09T10:00:58.089Z,24.68
2018-02-09T10:03:24.236Z,24.70
2018-02-09T10:05:50.684Z,24.65
2018-02-09T10:08:17.001Z,24.57
2018-02-09T10:10:43.330Z,24.60
2018-02-09T10:13:09.994Z,24.61
2018-02-09T10:15:37.186Z,24.45
2018-02-09T10:18:10.676Z,24.55
2018-02-09T10:20:37.754Z,24.39
2018-02-09T10:23:04.020Z,24.45
2018-02-09T10:25:30.310Z,24.35
2018-02-09T10:27:56.565Z,24.15
2018-02-09T10:30:22.777Z,24.13
2018-02-09T10:32:48.823Z,24.28
2018-02-09T10:35:14.863Z,24.20
2018-02-09T10:37:40.946Z,24.05
2018-02-09T10:40:07.208Z,24.18
2018-02-09T10:42:33.347Z,24.19
2018-02-09T10:44:59.418Z,24.01
2018-02-09T10:47:25.491Z,24.07
2018-02-09T10:49:51.573Z,24.09
2018-02-09T10:52:17.597Z,24.15
2018-02-09T10:54:43.702Z,24.04
2018-02-09T10:57:09.950Z,24.10
2018-02-09T10:59:36.049Z,24.26
2018-02-09T11:02:02.227Z,24.12
2018-02-09T11:04:28.306Z,24.20
2018-02-09T11:06:54.412Z,24.16
2018-02-09T11:09:20.545Z,24.14
2018-02-09T11:11:46.627Z,24.27
2018-02-09T11:14:12.765Z,24.25
2018-02-09T11:16:38.899Z,24.29
2018-02-09T11:19:05.088Z,24.10
2018-02-09T11:21:31.172Z,24.19
2018-02-09T11:23:57.244Z,24.26
2018-02-09T11:26:23.295Z,24.30
2018-02-09T11:28:49.404Z,24.28
2018-02-09T11:31:15.484Z,24.34
2018-02-09T11:33:41.898Z,24.27
2018-02-09T11:36:08.011Z,24.35
2018-02-09T11:38:34.415Z,24.33
2018-02-09T11:41:01.201Z,24.35
2018-02-09T11:54:58.647Z,24.65
2018-02-09T12:05:58.227Z,24.35
2018-02-09T12:08:24.396Z,24.29
2018-02-09T12:10:51.069Z,24.32
2018-02-09T12:13:17.404Z,24.33
2018-02-09T12:15:44.119Z,24.27
2018-02-09T12:18:11.175Z,24.19
2018-02-09T12:20:38.048Z,24.19
2018-02-09T12:32:11.822Z,24.21
2018-02-09T12:34:38.704Z,24.21
2018-02-09T12:37:05.055Z,24.31
2018-02-09T14:21:04.742Z,24.32
2018-02-09T14:23:40.904Z,24.06
2018-02-09T14:26:17.653Z,24.08
2018-02-09T14:28:43.689Z,23.84
2018-02-09T15:04:48.788Z,24.97
2018-02-09T15:07:14.788Z,25.02
2018-02-09T15:09:40.849Z,24.63
2018-02-09T15:12:06.859Z,24.13
2018-02-09T15:14:32.907Z,25.91
2018-02-09T16:03:01.388Z,25.07
2018-02-09T16:13:13.527Z,25.42
2018-02-09T16:15:39.542Z,25.30
2018-02-09T17:50:45.168Z,24.12
2018-02-09T17:54:56.289Z,24.67
